Freeland, Washington
Current Conditions -  °F | °C
As of 8:53 AM on Thursday 18 Dec 2014 (Local Time) from KPAE Reporting Station
Overcast Overcast  
Wind Chill: 44°   Ceiling: 4100
Heat Index: 44°   Visibility: 10mi
Dew Point: 41°   Wind: 3mph
Humidity: 89%   Direction: 130°SE
Pressure: 29.92"   Gusts: NA
Location:  48.01°N, 122.53°W
Report Text: KPAE 181653Z 13003KT 10SM FEW030 BKN041 OVC048 07/05 A2992 RMK AO2 SLP134 T00670050
Loading
Personal Weather Stations






























Interactive Weather Map New forecast layout! Learn more

10-Day Weather Forecast

Advertisements
Track Severe Weather on mobile